Whitebluff, Mississippi
Current Conditions -  °F | °C
As of 4:53 AM on Sunday 23 Nov 2014 (Local Time) from KMCB Reporting Station
Light Rain Light Rain  
Wind Chill: 61°   Ceiling: 400
Heat Index: 61°   Visibility: 4mi
Dew Point: 59°   Wind: 8mph
Humidity: 93%   Direction: 110°ESE
Pressure: 29.75"   Gusts: NA
Location:  31.274°N, 89.9542°W
Report Text: KMCB 231053Z AUTO 11007KT 4SM -RA BR OVC004 16/15 A2975 RMK AO2 RAB23 SLP069 P0000 T01610150
Loading
Personal Weather Stations






























Interactive Weather Map New forecast layout! Learn more

10-Day Weather Forecast

Advertisements
Track Severe Weather on mobile